Time;durP1;ratioP1;P1;durP2;ratioP2;P2;SDS_P1;SDS_P2;PMS_P1;PMS_P2;Temp;Humidity;BMP_temperature;BMP_pressure;BME280_temperature;BME280_humidity;BME280_pressure;Samples;Min_cycle;Max_cycle;Signal;HPM_P1;HPM_P2
2023/10/02 00:01:23;;;;;;;10.73;5.23;;;;;;;12.95;100.00;98842.66;5095141;28;20241;-81
2023/10/02 00:04:16;;;;;;;12.57;6.50;;;;;;;12.96;100.00;98849.69;5095829;28;20275;-81
2023/10/02 00:06:37;;;;;;;10.90;6.07;;;;;;;12.99;100.00;98845.03;5095930;28;20232;-81
2023/10/02 00:09:05;;;;;;;10.27;6.40;;;;;;;13.00;100.00;98845.84;5095871;28;20210;-81
2023/10/02 00:11:40;;;;;;;10.13;6.07;;;;;;;12.97;100.00;98848.72;5095732;28;20254;-81
2023/10/02 00:14:22;;;;;;;11.17;5.93;;;;;;;12.97;100.00;98840.75;5096126;28;20224;-81
2023/10/02 00:16:59;;;;;;;10.60;6.23;;;;;;;12.92;100.00;98841.06;5095155;28;20332;-81
2023/10/02 00:19:32;;;;;;;10.67;6.10;;;;;;;12.92;100.00;98842.84;5095739;28;20203;-81
2023/10/02 00:22:03;;;;;;;14.07;6.60;;;;;;;12.87;100.00;98840.50;5095552;28;20268;-81
2023/10/02 00:24:33;;;;;;;13.37;6.70;;;;;;;12.85;100.00;98846.88;5095419;28;20209;-81
2023/10/02 00:27:02;;;;;;;12.90;6.33;;;;;;;12.82;100.00;98845.25;5094911;28;20232;-81
2023/10/02 00:29:29;;;;;;;14.57;7.07;;;;;;;12.86;100.00;98843.25;5091674;28;20218;-83
2023/10/02 00:31:58;;;;;;;12.87;5.97;;;;;;;12.84;100.00;98845.16;5091842;28;20219;-80
2023/10/02 00:34:31;;;;;;;12.80;6.17;;;;;;;12.83;100.00;98841.66;5091384;28;20263;-80
2023/10/02 00:37:02;;;;;;;12.97;6.57;;;;;;;12.80;100.00;98843.66;5093587;28;20230;-80
2023/10/02 00:39:31;;;;;;;12.73;6.60;;;;;;;12.74;100.00;98844.06;5094405;28;20214;-80
2023/10/02 00:42:15;;;;;;;12.83;7.17;;;;;;;12.67;100.00;98835.69;5095530;28;20248;-81
2023/10/02 00:44:54;;;;;;;11.37;6.00;;;;;;;12.71;100.00;98838.97;5094425;28;20215;-80
2023/10/02 00:47:42;;;;;;;11.60;6.17;;;;;;;12.63;100.00;98838.63;5094616;28;20192;-81
2023/10/02 00:50:16;;;;;;;10.93;5.83;;;;;;;12.58;100.00;98833.63;5096229;28;20208;-80
2023/10/02 00:52:47;;;;;;;11.13;6.07;;;;;;;12.61;100.00;98835.22;5095288;28;20211;-80
2023/10/02 00:55:16;;;;;;;11.20;6.60;;;;;;;12.58;100.00;98827.47;5094114;28;20214;-80
2023/10/02 00:57:46;;;;;;;12.10;6.37;;;;;;;12.64;100.00;98825.25;5095125;28;20293;-80
2023/10/02 01:00:20;;;;;;;12.93;6.33;;;;;;;12.60;100.00;98828.22;5095538;28;20198;-80
2023/10/02 01:02:51;;;;;;;11.27;6.17;;;;;;;12.56;100.00;98824.94;5094941;28;20241;-80
2023/10/02 01:05:21;;;;;;;12.50;5.87;;;;;;;12.53;100.00;98829.59;5095872;28;20187;-81
2023/10/02 01:07:53;;;;;;;13.43;6.90;;;;;;;12.45;100.00;98815.97;5095659;28;20326;-81
2023/10/02 01:10:20;;;;;;;12.47;5.90;;;;;;;12.39;100.00;98816.38;5095073;28;20205;-80
2023/10/02 01:12:50;;;;;;;13.03;5.97;;;;;;;12.44;100.00;98825.75;5095190;28;20325;-81
2023/10/02 01:15:20;;;;;;;11.07;5.50;;;;;;;12.45;100.00;98818.63;5093861;28;20238;-81
2023/10/02 01:17:49;;;;;;;15.13;6.90;;;;;;;12.48;100.00;98819.25;5095255;28;20202;-81
2023/10/02 01:20:28;;;;;;;11.03;5.73;;;;;;;12.46;100.00;98815.03;5094414;28;20551;-80
2023/10/02 01:23:11;;;;;;;9.70;5.90;;;;;;;12.46;100.00;98815.88;5093017;28;20358;-80
2023/10/02 01:25:41;;;;;;;14.10;6.63;;;;;;;12.50;100.00;98814.72;5092964;28;20221;-81
2023/10/02 01:28:10;;;;;;;14.03;6.53;;;;;;;12.46;100.00;98813.22;5084556;28;20204;-81
2023/10/02 01:30:37;;;;;;;12.13;6.30;;;;;;;12.47;100.00;98808.78;5075359;28;20234;-81
2023/10/02 01:33:14;;;;;;;11.33;5.80;;;;;;;12.48;100.00;98815.78;5075451;28;20260;-81
2023/10/02 01:35:49;;;;;;;11.20;6.27;;;;;;;12.49;100.00;98809.53;5075394;28;20195;-81
2023/10/02 01:38:18;;;;;;;12.30;6.40;;;;;;;12.51;100.00;98818.22;5075277;28;20644;-82
2023/10/02 01:40:49;;;;;;;10.63;5.23;;;;;;;12.48;100.00;98815.78;5075133;28;20244;-82
2023/10/02 01:43:19;;;;;;;12.37;5.70;;;;;;;12.48;100.00;98811.31;5075297;28;20214;-82
2023/10/02 01:45:47;;;;;;;11.30;5.90;;;;;;;12.48;100.00;98813.13;5074861;28;20214;-82
2023/10/02 01:48:36;;;;;;;9.53;6.20;;;;;;;12.55;100.00;98822.38;5075004;28;20207;-82
2023/10/02 01:51:15;;;;;;;11.60;6.00;;;;;;;12.60;100.00;98814.97;5074459;28;20262;-82
2023/10/02 01:53:42;;;;;;;11.50;6.20;;;;;;;12.61;100.00;98814.00;5074503;28;20210;-82
2023/10/02 01:56:12;;;;;;;9.90;5.80;;;;;;;12.64;100.00;98816.44;5074257;28;20229;-82
2023/10/02 01:58:40;;;;;;;10.67;5.67;;;;;;;12.67;100.00;98811.81;5074282;28;20215;-82
2023/10/02 02:01:09;;;;;;;11.97;5.50;;;;;;;12.67;100.00;98816.25;5074376;28;20234;-82
2023/10/02 02:03:36;;;;;;;10.53;5.97;;;;;;;12.66;100.00;98812.75;5074152;28;20211;-82
2023/10/02 02:06:08;;;;;;;10.70;5.87;;;;;;;12.63;100.00;98815.63;5073049;28;20213;-82
2023/10/02 02:08:36;;;;;;;9.77;6.23;;;;;;;12.62;100.00;98813.91;5074383;28;20216;-82
2023/10/02 02:11:16;;;;;;;12.53;6.33;;;;;;;12.58;100.00;98819.50;5073089;28;20230;-82
2023/10/02 02:13:47;;;;;;;11.77;6.43;;;;;;;12.59;100.00;98813.28;5073509;28;20215;-82
2023/10/02 02:16:17;;;;;;;11.83;6.23;;;;;;;12.56;100.00;98813.47;5073150;28;20224;-82
2023/10/02 02:18:45;;;;;;;10.63;5.97;;;;;;;12.58;100.00;98809.75;5073460;28;20213;-82
2023/10/02 02:21:16;;;;;;;14.90;6.47;;;;;;;12.55;100.00;98817.06;5072830;28;20601;-82
2023/10/02 02:23:45;;;;;;;13.87;6.23;;;;;;;12.49;100.00;98815.69;5073612;28;20301;-82
2023/10/02 02:26:20;;;;;;;11.83;6.60;;;;;;;12.45;100.00;98813.31;5073391;28;20668;-82
2023/10/02 02:28:48;;;;;;;13.10;6.23;;;;;;;12.40;100.00;98810.16;5073534;28;20189;-82
2023/10/02 02:33:57;;;;;;;11.77;6.23;;;;;;;12.36;100.00;98806.81;5077604;28;20555;-81
2023/10/02 02:36:25;;;;;;;9.97;5.90;;;;;;;12.35;100.00;98814.91;5077757;28;20574;-82
2023/10/02 02:39:05;;;;;;;11.93;5.53;;;;;;;12.33;100.00;98812.34;5077261;28;20233;-82
2023/10/02 02:41:31;;;;;;;11.87;6.23;;;;;;;12.32;100.00;98820.38;5077690;28;20242;-82
2023/10/02 02:44:00;;;;;;;11.53;6.07;;;;;;;12.30;100.00;98817.81;5078435;28;20209;-82
2023/10/02 02:46:29;;;;;;;13.10;6.60;;;;;;;12.30;100.00;98812.53;5077629;28;20208;-81
2023/10/02 02:48:56;;;;;;;10.60;5.97;;;;;;;12.27;100.00;98812.75;5077442;28;20314;-82
2023/10/02 02:51:24;;;;;;;12.33;6.23;;;;;;;12.33;100.00;98819.44;5076831;28;20291;-82
2023/10/02 02:53:51;;;;;;;12.93;6.30;;;;;;;12.31;100.00;98813.38;5077426;28;20211;-82
2023/10/02 02:56:22;;;;;;;13.13;6.47;;;;;;;12.31;100.00;98813.38;5077052;28;20273;-82
2023/10/02 02:58:50;;;;;;;13.00;6.13;;;;;;;12.32;100.00;98820.38;5077334;28;20250;-82
2023/10/02 03:01:22;;;;;;;11.77;6.50;;;;;;;12.30;100.00;98817.00;5078032;28;20238;-81
2023/10/02 03:03:49;;;;;;;11.33;5.80;;;;;;;12.27;100.00;98817.16;5080425;28;20213;-82
2023/10/02 03:06:22;;;;;;;12.00;6.50;;;;;;;12.25;100.00;98813.78;5080006;28;20322;-82
2023/10/02 03:08:50;;;;;;;9.00;5.80;;;;;;;12.12;100.00;98815.53;5079712;28;20221;-82
2023/10/02 03:11:19;;;;;;;11.80;6.13;;;;;;;11.99;100.00;98804.84;5078671;28;20227;-82
2023/10/02 03:13:47;;;;;;;12.13;6.27;;;;;;;11.90;100.00;98807.25;5079382;28;20270;-82
2023/10/02 03:16:16;;;;;;;11.80;6.17;;;;;;;11.80;100.00;98808.81;5078966;28;20240;-82
2023/10/02 03:18:44;;;;;;;15.80;7.40;;;;;;;11.67;100.00;98805.22;5078273;28;20223;-82
2023/10/02 03:21:23;;;;;;;11.93;6.77;;;;;;;11.63;100.00;98809.00;5078068;28;20732;-82
2023/10/02 03:23:50;;;;;;;12.63;6.10;;;;;;;11.59;100.00;98807.47;5078486;28;20213;-82
2023/10/02 03:26:37;;;;;;;11.13;5.80;;;;;;;11.55;100.00;98803.31;5078271;28;20224;-82
2023/10/02 03:29:04;;;;;;;11.40;5.90;;;;;;;11.48;100.00;98809.91;5078305;28;20690;-82
2023/10/02 03:31:43;;;;;;;11.00;6.07;;;;;;;11.44;100.00;98811.06;5077573;28;20225;-82
2023/10/02 03:34:33;;;;;;;13.53;6.20;;;;;;;11.38;100.00;98819.38;5077916;28;20250;-82
2023/10/02 03:37:08;;;;;;;10.33;5.97;;;;;;;11.36;100.00;98816.81;5078367;28;20216;-82
2023/10/02 03:39:53;;;;;;;13.63;6.43;;;;;;;11.34;100.00;98824.03;5077892;28;20200;-82
2023/10/02 03:42:25;;;;;;;11.87;5.63;;;;;;;11.35;100.00;98819.56;5077444;28;20233;-82
2023/10/02 03:44:54;;;;;;;8.50;4.93;;;;;;;11.38;100.00;98825.50;5076587;28;20316;-82
2023/10/02 03:47:20;;;;;;;11.97;5.97;;;;;;;11.37;100.00;98818.53;5077885;28;20211;-83
2023/10/02 03:49:49;;;;;;;9.77;5.10;;;;;;;11.40;100.00;98828.06;5077282;28;20206;-82
2023/10/02 03:52:17;;;;;;;11.20;5.83;;;;;;;11.41;100.00;98832.41;5076699;28;20435;-82
2023/10/02 03:54:44;;;;;;;9.40;5.30;;;;;;;11.37;100.00;98829.09;5075841;28;20242;-81
2023/10/02 03:57:37;;;;;;;9.03;4.90;;;;;;;11.36;100.00;98826.53;5076759;28;20216;-82
2023/10/02 04:00:09;;;;;;;9.03;5.20;;;;;;;11.34;100.00;98828.44;5076491;28;20262;-82
2023/10/02 04:02:36;;;;;;;11.57;5.90;;;;;;;11.28;100.00;98828.81;5076229;28;20750;-82
2023/10/02 04:05:05;;;;;;;11.20;5.57;;;;;;;11.27;100.00;98827.13;5076427;28;20215;-82
2023/10/02 04:07:31;;;;;;;10.27;5.10;;;;;;;11.28;100.00;98828.81;5076005;28;20203;-82
2023/10/02 04:09:59;;;;;;;10.03;5.70;;;;;;;11.24;100.00;98824.66;5076296;28;20211;-82
2023/10/02 04:12:26;;;;;;;9.67;6.17;;;;;;;11.22;100.00;98811.53;5075685;28;20223;-82
2023/10/02 04:14:54;;;;;;;12.00;6.57;;;;;;;11.22;100.00;98813.31;5076298;28;20204;-82
2023/10/02 04:17:21;;;;;;;12.67;6.43;;;;;;;11.23;100.00;98822.94;5076010;28;20697;-82
2023/10/02 04:19:49;;;;;;;10.53;6.33;;;;;;;11.24;100.00;98819.34;5076447;28;20215;-81
2023/10/02 04:22:22;;;;;;;14.13;7.03;;;;;;;11.23;100.00;98815.00;5075228;28;20237;-81
2023/10/02 04:24:54;;;;;;;12.07;6.60;;;;;;;11.20;100.00;98815.22;5075289;28;20209;-82
2023/10/02 04:27:25;;;;;;;12.00;7.03;;;;;;;11.23;100.00;98821.16;5075915;28;20213;-82
2023/10/02 04:30:19;;;;;;;11.37;6.60;;;;;;;11.20;100.00;98818.69;5073743;28;20227;-81
2023/10/02 04:32:49;;;;;;;13.50;6.57;;;;;;;11.21;100.00;98816.91;5074240;28;20596;-82
2023/10/02 04:37:59;;;;;;;12.00;6.70;;;;;;;11.22;100.00;98808.03;5074646;28;20575;-82
2023/10/02 04:40:37;;;;;;;14.03;6.93;;;;;;;11.24;100.00;98814.94;5074943;28;20223;-82
2023/10/02 04:43:19;;;;;;;13.13;6.87;;;;;;;11.26;100.00;98817.50;5074338;28;20600;-81
2023/10/02 04:45:45;;;;;;;11.80;6.57;;;;;;;11.26;100.00;98825.44;5074509;28;20212;-82
2023/10/02 04:48:11;;;;;;;13.33;6.70;;;;;;;11.31;100.00;98828.66;5074924;28;20212;-82
2023/10/02 04:50:45;;;;;;;10.33;6.17;;;;;;;11.30;100.00;98817.19;5075566;28;20203;-82
2023/10/02 04:53:23;;;;;;;11.40;6.03;;;;;;;11.32;100.00;98817.13;5074626;28;20656;-82
2023/10/02 04:56:06;;;;;;;13.60;7.07;;;;;;;11.30;100.00;98821.63;5073905;28;20303;-82
2023/10/02 04:58:36;;;;;;;13.63;7.23;;;;;;;11.28;100.00;98823.53;5074753;28;20302;-81
2023/10/02 05:03:51;;;;;;;12.37;6.67;;;;;;;11.19;100.00;98819.63;5074456;28;20310;-81
2023/10/02 05:06:39;;;;;;;12.37;6.40;;;;;;;11.17;100.00;98823.31;5074278;28;20207;-82
2023/10/02 05:11:55;;;;;;;11.73;6.57;;;;;;;11.12;100.00;98820.13;5074158;28;20230;-81
2023/10/02 05:14:26;;;;;;;12.80;6.90;;;;;;;11.13;100.00;98819.19;5074590;28;20402;-81
2023/10/02 05:16:53;;;;;;;14.80;6.87;;;;;;;11.14;100.00;98815.59;5075003;28;20207;-82
2023/10/02 05:19:56;;;;;;;15.40;7.40;;;;;;;11.12;100.00;98828.91;5075293;28;20208;-82
2023/10/02 05:22:08;;;;;;;13.93;6.87;;;;;;;11.15;100.00;98822.56;5073365;28;20232;-81
2023/10/02 05:24:36;;;;;;;14.50;7.00;;;;;;;11.15;100.00;98822.56;5074641;28;20271;-81
2023/10/02 05:27:04;;;;;;;14.97;8.27;;;;;;;11.16;100.00;98818.97;5074072;28;20214;-81
2023/10/02 05:29:40;;;;;;;12.17;6.70;;;;;;;11.16;100.00;98824.28;5074100;28;20235;-81
2023/10/02 05:32:19;;;;;;;11.40;6.47;;;;;;;11.14;100.00;98821.72;5073978;28;20227;-81
2023/10/02 05:34:58;;;;;;;13.50;6.97;;;;;;;11.15;100.00;98822.56;5075537;28;20264;-81
2023/10/02 05:37:30;;;;;;;12.17;6.57;;;;;;;11.13;100.00;98829.75;5080570;28;20229;-82
2023/10/02 05:40:37;;;;;;;11.10;6.07;;;;;;;11.15;100.00;98827.88;5080506;28;20226;-82
2023/10/02 05:42:53;;;;;;;12.97;6.67;;;;;;;11.18;100.00;98830.34;5078833;28;20235;-82
2023/10/02 05:45:37;;;;;;;15.17;7.20;;;;;;;11.21;100.00;98827.50;5076900;28;20218;-83
2023/10/02 05:48:07;;;;;;;14.47;7.37;;;;;;;11.24;100.00;98827.28;5076143;28;20242;-80
2023/10/02 05:50:34;;;;;;;14.07;7.13;;;;;;;11.27;100.00;98837.72;5075690;28;20208;-81
2023/10/02 05:53:01;;;;;;;11.27;6.50;;;;;;;11.27;100.00;98835.06;5075239;28;20217;-81
2023/10/02 05:55:54;;;;;;;13.47;7.47;;;;;;;11.28;100.00;98834.13;5075186;28;20208;-82
2023/10/02 05:58:23;;;;;;;10.13;6.63;;;;;;;11.33;100.00;98832.91;5075167;28;20223;-82
2023/10/02 06:00:51;;;;;;;12.70;7.23;;;;;;;11.36;100.00;98831.84;5055053;28;20859;-82
2023/10/02 06:03:18;;;;;;;14.83;6.67;;;;;;;11.36;100.00;98834.50;5055303;28;20231;-82
2023/10/02 06:06:06;;;;;;;12.23;6.80;;;;;;;11.41;100.00;98832.41;5055433;28;20218;-81
2023/10/02 06:08:33;;;;;;;14.67;7.03;;;;;;;11.44;100.00;98834.88;5054613;28;20210;-82
2023/10/02 06:11:25;;;;;;;15.10;7.83;;;;;;;11.50;100.00;98832.69;5054992;28;20236;-82
2023/10/02 06:13:58;;;;;;;13.97;7.60;;;;;;;11.56;100.00;98834.97;5055756;28;20200;-82
2023/10/02 06:16:26;;;;;;;13.87;7.33;;;;;;;11.60;100.00;98836.53;5055779;28;20223;-80
2023/10/02 06:19:06;;;;;;;14.47;7.87;;;;;;;11.69;100.00;98835.09;5055527;28;20270;-81
2023/10/02 06:21:45;;;;;;;11.90;7.23;;;;;;;11.78;100.00;98827.44;5053996;28;20321;-81
2023/10/02 06:24:13;;;;;;;16.63;8.00;;;;;;;11.93;100.00;98838.84;5054332;28;20389;-81
2023/10/02 06:26:53;;;;;;;13.73;7.67;;;;;;;11.98;100.00;98834.13;5055033;28;20214;-82
2023/10/02 06:29:22;;;;;;;14.30;7.70;;;;;;;12.07;100.00;98834.38;5055292;28;20279;-80
2023/10/02 06:31:51;;;;;;;17.27;8.43;;;;;;;12.17;100.00;98838.13;5055166;28;20224;-82
2023/10/02 06:34:18;;;;;;;12.00;7.40;;;;;;;12.26;100.00;98837.53;5053821;28;20612;-81
2023/10/02 06:36:48;;;;;;;13.03;6.70;;;;;;;12.39;100.00;98842.88;5053009;28;20218;-82
2023/10/02 06:39:17;;;;;;;12.53;7.23;;;;;;;12.49;100.00;98838.69;5052856;28;20215;-82
2023/10/02 06:41:46;;;;;;;12.30;6.43;;;;;;;12.61;100.00;98843.19;5052735;28;20221;-82
2023/10/02 06:44:15;;;;;;;13.33;6.70;;;;;;;12.69;100.00;98840.88;5053190;28;20215;-81
2023/10/02 06:46:52;;;;;;;16.47;7.20;;;;;;;12.82;100.00;98841.75;5053168;28;20214;-81
2023/10/02 06:49:20;;;;;;;12.70;7.23;;;;;;;12.90;100.00;98847.41;5052914;28;20207;-81
2023/10/02 06:51:49;;;;;;;12.17;6.90;;;;;;;13.05;100.00;98849.03;5052151;28;20253;-82
2023/10/02 06:54:18;;;;;;;12.97;7.17;;;;;;;13.17;100.00;98853.53;5051687;28;20268;-82
2023/10/02 06:56:46;;;;;;;13.37;7.00;;;;;;;13.24;100.00;98849.50;5053798;28;20209;-85
2023/10/02 06:59:13;;;;;;;13.30;6.30;;;;;;;13.41;100.00;98849.19;5053441;28;20211;-80
2023/10/02 07:02:01;;;;;;;13.70;6.50;;;;;;;13.49;100.00;98853.00;5051831;28;20676;-80
2023/10/02 07:04:30;;;;;;;13.97;6.90;;;;;;;13.57;100.00;98848.00;5052174;28;20207;-80
2023/10/02 07:07:02;;;;;;;12.70;6.67;;;;;;;13.65;100.00;98845.69;5052207;28;20281;-80
2023/10/02 07:09:33;;;;;;;11.17;6.20;;;;;;;13.78;100.00;98846.50;5052302;28;20236;-80
2023/10/02 07:12:08;;;;;;;10.80;6.20;;;;;;;13.86;100.00;98844.16;5051787;28;20234;-82
2023/10/02 07:14:36;;;;;;;11.23;5.83;;;;;;;13.97;100.00;98851.34;5052402;28;20651;-81
2023/10/02 07:17:11;;;;;;;11.57;6.07;;;;;;;14.00;100.00;98849.31;5052025;28;20374;-81
2023/10/02 07:19:39;;;;;;;11.37;6.17;;;;;;;14.10;100.00;98846.84;5053581;28;20617;-81
2023/10/02 07:22:11;;;;;;;12.37;6.30;;;;;;;14.20;100.00;98842.63;5055158;28;20235;-81
2023/10/02 07:24:40;;;;;;;13.97;6.87;;;;;;;14.28;100.00;98841.09;5055373;28;20215;-81
2023/10/02 07:27:22;;;;;;;13.67;7.00;;;;;;;14.44;100.00;98846.16;5055220;28;20693;-81
2023/10/02 07:29:51;;;;;;;12.13;6.43;;;;;;;14.51;100.00;98842.06;5055155;28;20216;-81
2023/10/02 07:32:18;;;;;;;10.63;6.13;;;;;;;14.62;100.00;98839.47;5054695;28;20871;-81
2023/10/02 07:34:45;;;;;;;11.30;5.97;;;;;;;14.67;100.00;98837.31;5055381;28;20214;-81
2023/10/02 07:37:13;;;;;;;11.00;6.30;;;;;;;14.79;100.00;98847.06;5055143;28;20220;-81
2023/10/02 07:39:40;;;;;;;10.43;6.37;;;;;;;14.87;100.00;98834.88;5055421;28;20218;-81
2023/10/02 07:42:10;;;;;;;10.80;6.43;;;;;;;14.98;100.00;98831.38;5054775;28;20228;-81
2023/10/02 07:44:37;;;;;;;12.53;6.47;;;;;;;15.15;100.00;98822.97;5055627;28;20227;-81
2023/10/02 07:47:10;;;;;;;10.27;6.07;;;;;;;15.25;100.00;98829.28;5054838;28;20581;-81
2023/10/02 07:49:37;;;;;;;13.80;6.97;;;;;;;15.37;100.00;98829.22;5054931;28;20250;-81
2023/10/02 07:52:06;;;;;;;11.53;6.20;;;;;;;15.48;100.00;98833.69;5054299;28;20266;-80
2023/10/02 07:54:44;;;;;;;9.17;5.67;;;;;;;15.55;100.00;98825.13;5054789;28;20299;-81
2023/10/02 07:57:13;;;;;;;12.23;6.40;;;;;;;15.66;100.00;98825.13;5054622;28;20219;-81
2023/10/02 07:59:41;;;;;;;13.30;6.20;;;;;;;15.76;100.00;98819.94;5054732;28;20235;-80
2023/10/02 08:02:21;;;;;;;11.00;5.83;;;;;;;15.93;100.00;98832.75;5054505;28;20266;-81
2023/10/02 08:04:48;;;;;;;14.53;5.80;;;;;;;16.06;100.00;98822.81;5054130;28;20266;-81
2023/10/02 08:07:15;;;;;;;12.73;6.30;;;;;;;16.17;100.00;98824.50;5054523;28;20706;-81
2023/10/02 08:09:47;;;;;;;12.20;6.60;;;;;;;16.31;100.00;98821.53;5059983;28;20204;-81
2023/10/02 08:12:29;;;;;;;13.70;5.97;;;;;;;16.41;100.00;98814.50;5059458;28;20323;-81
2023/10/02 08:14:59;;;;;;;11.03;6.13;;;;;;;16.57;100.00;98817.63;5059101;28;20208;-81
2023/10/02 08:17:59;;;;;;;11.57;5.93;;;;;;;16.67;100.00;98807.88;5057136;28;20212;-81
2023/10/02 08:20:20;;;;;;;11.10;6.07;;;;;;;16.78;100.00;98818.53;5056481;28;20232;-81
2023/10/02 08:22:51;;;;;;;12.00;6.03;;;;;;;16.92;100.00;98810.19;5056091;28;20228;-81
2023/10/02 08:25:23;;;;;;;11.70;6.60;;;;;;;17.09;100.00;98801.59;5056300;28;20667;-81
2023/10/02 08:27:57;;;;;;;12.53;6.60;;;;;;;17.22;98.70;98802.25;5056480;28;20255;-81
2023/10/02 08:30:28;;;;;;;11.23;6.03;;;;;;;17.41;97.38;98801.53;5056167;28;20302;-81
2023/10/02 08:33:05;;;;;;;12.77;6.53;;;;;;;17.60;96.03;98804.31;5055732;28;20694;-82
2023/10/02 08:35:31;;;;;;;12.47;6.47;;;;;;;17.74;95.80;98799.44;5056066;28;20257;-81
2023/10/02 08:37:59;;;;;;;9.47;6.13;;;;;;;17.85;95.01;98802.03;5055704;28;20208;-81
2023/10/02 08:40:25;;;;;;;11.77;6.87;;;;;;;17.91;93.70;98789.97;5055750;28;20612;-81
2023/10/02 08:42:56;;;;;;;11.03;6.27;;;;;;;18.14;93.20;98797.63;5055528;28;20228;-81
2023/10/02 08:45:23;;;;;;;11.87;6.10;;;;;;;18.26;91.18;98785.84;5055450;28;20216;-81
2023/10/02 08:47:50;;;;;;;12.43;6.40;;;;;;;18.38;88.95;98784.75;5055391;28;20211;-81
2023/10/02 08:50:17;;;;;;;12.47;6.60;;;;;;;18.50;87.42;98772.94;5055107;28;20204;-81
2023/10/02 08:52:50;;;;;;;14.00;6.67;;;;;;;18.59;86.54;98776.63;5054974;28;20235;-81
2023/10/02 08:55:34;;;;;;;11.73;6.50;;;;;;;18.72;86.13;98772.66;5055176;28;20192;-81
2023/10/02 08:58:15;;;;;;;13.37;6.67;;;;;;;18.89;84.45;98771.13;5055143;28;20250;-82
2023/10/02 09:01:17;;;;;;;12.47;6.20;;;;;;;19.01;83.75;98773.47;5054928;28;20334;-81
2023/10/02 09:03:49;;;;;;;12.90;6.97;;;;;;;19.04;83.87;98778.56;5054351;28;20239;-81
2023/10/02 09:06:31;;;;;;;13.03;6.53;;;;;;;19.18;83.34;98764.72;5054766;28;20581;-81
2023/10/02 09:11:41;;;;;;;13.00;7.23;;;;;;;19.38;80.57;98766.38;5053190;28;20224;-81
2023/10/02 09:14:16;;;;;;;11.27;6.30;;;;;;;19.38;80.13;98762.88;5053902;28;20208;-81
2023/10/02 09:16:45;;;;;;;12.37;6.97;;;;;;;19.39;79.82;98757.34;5053414;28;20207;-81
2023/10/02 09:19:34;;;;;;;10.88;6.45;;;;;;;19.61;79.10;98759.69;5049800;28;20437;-82
2023/10/02 09:22:07;;;;;;;11.53;6.87;;;;;;;19.69;78.60;98750.91;5052126;28;20256;-83
2023/10/02 09:24:34;;;;;;;15.27;6.87;;;;;;;19.82;77.29;98749.56;5052673;28;20243;-84
2023/10/02 09:27:25;;;;;;;12.23;6.87;;;;;;;19.88;75.04;98743.59;5053025;28;20212;-83
2023/10/02 09:32:47;;;;;;;11.50;6.53;;;;;;;20.09;74.63;98736.19;5053613;28;20228;-81
2023/10/02 09:35:21;;;;;;;11.80;6.60;;;;;;;20.32;72.77;98732.06;5051989;28;20439;-84
2023/10/02 09:37:49;;;;;;;12.23;6.60;;;;;;;20.41;70.47;98725.78;5052605;28;20214;-83
2023/10/02 09:40:17;;;;;;;11.03;6.07;;;;;;;20.51;71.91;98731.06;5053035;28;20207;-83
2023/10/02 09:42:48;;;;;;;10.67;6.23;;;;;;;20.68;70.52;98727.53;5051702;28;20664;-84
2023/10/02 09:45:30;;;;;;;11.57;6.10;;;;;;;20.71;70.25;98722.69;5054436;28;20212;-84
2023/10/02 09:47:59;;;;;;;11.73;6.53;;;;;;;20.84;68.87;98715.09;5055541;28;20196;-85
2023/10/02 09:50:29;;;;;;;11.67;6.50;;;;;;;20.97;69.16;98715.56;5054672;28;20204;-84
2023/10/02 09:52:59;;;;;;;12.43;6.27;;;;;;;21.09;69.54;98716.97;5055271;28;20572;-84
2023/10/02 09:55:40;;;;;;;10.13;6.07;;;;;;;21.16;66.64;98698.38;5055555;28;20220;-84
2023/10/02 09:58:26;;;;;;;11.00;6.20;;;;;;;21.30;67.13;98708.56;5055253;28;20212;-85
2023/10/02 10:01:33;;;;;;;10.97;5.67;;;;;;;21.38;64.76;98685.25;5053877;28;20263;-84
2023/10/02 10:03:59;;;;;;;12.17;6.87;;;;;;;21.45;64.39;98696.22;5053461;28;20262;-82
2023/10/02 10:06:29;;;;;;;14.00;6.83;;;;;;;21.51;63.62;98676.75;5054322;28;20203;-83
2023/10/02 10:09:25;;;;;;;11.93;7.00;;;;;;;21.74;62.71;98673.34;5054302;28;20208;-82
2023/10/02 10:14:36;;;;;;;12.97;7.17;;;;;;;21.94;62.19;98677.44;5052283;28;20289;-81
2023/10/02 10:17:12;;;;;;;11.17;5.93;;;;;;;21.95;62.13;98676.41;5051777;28;20690;-81
2023/10/02 10:19:41;;;;;;;11.93;6.93;;;;;;;22.09;60.37;98662.34;5052943;28;20215;-81
2023/10/02 10:22:35;;;;;;;12.97;6.80;;;;;;;22.05;58.83;98647.53;5053618;28;20243;-83
2023/10/02 10:27:58;;;;;;;15.73;7.83;;;;;;;22.18;57.24;98641.66;5054505;28;20804;-81
2023/10/02 10:30:34;;;;;;;14.57;7.43;;;;;;;22.24;57.28;98636.44;5054645;28;20322;-81
2023/10/02 10:33:43;;;;;;;14.63;7.40;;;;;;;22.44;57.39;98648.59;5053811;28;20254;-83
2023/10/02 10:36:37;;;;;;;14.37;7.60;;;;;;;22.55;57.28;98647.44;5054711;28;20196;-83
2023/10/02 10:41:57;;;;;;;16.47;8.07;;;;;;;22.69;57.00;98631.44;5059216;28;20235;-83
2023/10/02 10:44:38;;;;;;;14.83;7.20;;;;;;;22.73;56.28;98632.78;5059312;28;20254;-83
2023/10/02 10:47:04;;;;;;;14.70;7.33;;;;;;;22.72;56.04;98630.25;5059469;28;20671;-83
2023/10/02 10:49:54;;;;;;;13.30;7.50;;;;;;;22.84;55.35;98627.03;5056929;28;20296;-83
2023/10/02 10:52:35;;;;;;;13.80;7.40;;;;;;;22.97;55.32;98621.97;5056544;28;20228;-83
2023/10/02 10:55:05;;;;;;;12.87;7.40;;;;;;;22.98;55.18;98623.63;5059642;28;20200;-83
2023/10/02 10:57:51;;;;;;;15.60;7.37;;;;;;;23.07;54.94;98619.06;5059292;28;20216;-83
2023/10/02 11:00:24;;;;;;;15.87;7.97;;;;;;;23.15;54.92;98617.19;5060432;28;20277;-83
2023/10/02 11:02:56;;;;;;;12.23;6.63;;;;;;;23.23;54.37;98613.69;5059449;28;20234;-83
2023/10/02 11:05:25;;;;;;;13.90;7.70;;;;;;;23.42;55.30;98624.88;5059614;28;20234;-83
2023/10/02 11:07:52;;;;;;;12.63;7.20;;;;;;;23.58;54.63;98616.72;5059761;28;20305;-83
2023/10/02 11:10:25;;;;;;;16.17;7.90;;;;;;;23.72;53.40;98621.38;5058862;28;20294;-83
2023/10/02 11:12:56;;;;;;;16.33;7.43;;;;;;;23.77;51.87;98645.16;5058762;28;20238;-83
2023/10/02 11:18:18;;;;;;;15.60;7.73;;;;;;;23.85;53.19;98651.38;5058851;28;20693;-83
2023/10/02 11:20:49;;;;;;;15.07;7.60;;;;;;;23.99;52.20;98639.00;5059211;28;20231;-85
2023/10/02 11:23:30;;;;;;;15.90;7.33;;;;;;;24.08;51.69;98644.16;5058417;28;20220;-83
2023/10/02 11:25:58;;;;;;;13.03;7.57;;;;;;;24.15;51.78;98636.19;5067574;28;20329;-84
2023/10/02 11:28:31;;;;;;;15.30;7.57;;;;;;;24.18;51.38;98627.72;5068240;28;20232;-83
2023/10/02 11:31:30;;;;;;;14.30;7.10;;;;;;;24.26;50.76;98623.09;5063958;28;20232;-80
2023/10/02 11:34:04;;;;;;;15.17;7.93;;;;;;;24.36;50.51;98626.41;5058693;28;20443;-81
2023/10/02 11:36:35;;;;;;;14.30;7.47;;;;;;;24.44;50.29;98623.66;5057942;28;20272;-81
2023/10/02 11:39:08;;;;;;;13.13;7.03;;;;;;;24.43;49.81;98613.88;5058505;28;20236;-81
2023/10/02 11:41:34;;;;;;;14.67;8.00;;;;;;;24.46;49.31;98605.41;5057960;28;20232;-81
2023/10/02 11:44:01;;;;;;;12.07;7.37;;;;;;;24.57;48.04;98594.16;5057087;28;20231;-81
2023/10/02 11:46:27;;;;;;;14.97;7.80;;;;;;;24.57;48.51;98596.06;5057555;28;20212;-80
2023/10/02 11:48:54;;;;;;;13.43;7.40;;;;;;;24.75;47.66;98591.16;5057326;28;20216;-80
2023/10/02 11:51:20;;;;;;;15.07;7.97;;;;;;;24.80;48.36;98586.88;5056326;28;20352;-80
2023/10/02 11:53:49;;;;;;;13.80;7.87;;;;;;;24.76;47.39;98600.94;5056408;28;20211;-80
2023/10/02 11:56:16;;;;;;;16.30;8.17;;;;;;;24.77;46.83;98576.44;5057549;28;20216;-81
2023/10/02 11:58:43;;;;;;;19.67;8.47;;;;;;;24.75;45.25;98567.66;5057143;28;20369;-81
2023/10/02 12:01:09;;;;;;;16.10;8.93;;;;;;;24.77;45.82;98562.91;5056942;28;20244;-81
2023/10/02 12:03:36;;;;;;;16.90;8.03;;;;;;;24.81;45.45;98561.50;5056331;28;20725;-81
2023/10/02 12:06:03;;;;;;;17.30;9.37;;;;;;;24.92;43.95;98552.94;5056065;28;20254;-81
2023/10/02 12:08:33;;;;;;;18.83;9.37;;;;;;;25.05;43.54;98549.59;5056704;28;20216;-81
2023/10/02 12:11:01;;;;;;;19.03;9.33;;;;;;;25.10;42.80;98545.28;5056668;28;20224;-81
2023/10/02 12:13:28;;;;;;;18.47;9.03;;;;;;;25.04;43.16;98546.03;5057310;28;20212;-81